sensor_id;sensor_type;location;lat;lon;timestamp;P1;durP1;ratioP1;P2;durP2;ratioP2
11771;SDS011;12556;55.748;13.194;2022-09-12T00:00:04;2.67;;;2.47;;
11771;SDS011;12556;55.748;13.194;2022-09-12T00:02:31;2.53;;;2.33;;
11771;SDS011;12556;55.748;13.194;2022-09-12T00:04:58;2.40;;;2.20;;
11771;SDS011;12556;55.748;13.194;2022-09-12T00:07:25;5.73;;;2.90;;
11771;SDS011;12556;55.748;13.194;2022-09-12T00:09:52;3.03;;;2.73;;
11771;SDS011;12556;55.748;13.194;2022-09-12T00:12:20;4.23;;;3.00;;
11771;SDS011;12556;55.748;13.194;2022-09-12T00:14:47;2.90;;;2.70;;
11771;SDS011;12556;55.748;13.194;2022-09-12T00:17:14;4.20;;;3.00;;
11771;SDS011;12556;55.748;13.194;2022-09-12T00:19:40;4.23;;;2.90;;
11771;SDS011;12556;55.748;13.194;2022-09-12T00:22:07;3.90;;;3.60;;
11771;SDS011;12556;55.748;13.194;2022-09-12T00:24:34;3.80;;;3.50;;
11771;SDS011;12556;55.748;13.194;2022-09-12T00:27:01;3.77;;;3.47;;
11771;SDS011;12556;55.748;13.194;2022-09-12T00:29:29;3.90;;;3.47;;
11771;SDS011;12556;55.748;13.194;2022-09-12T00:31:56;3.60;;;3.30;;
11771;SDS011;12556;55.748;13.194;2022-09-12T00:34:23;4.63;;;3.37;;
11771;SDS011;12556;55.748;13.194;2022-09-12T00:36:50;3.37;;;3.07;;
11771;SDS011;12556;55.748;13.194;2022-09-12T00:39:16;3.60;;;3.27;;
11771;SDS011;12556;55.748;13.194;2022-09-12T00:41:43;3.57;;;3.00;;
11771;SDS011;12556;55.748;13.194;2022-09-12T00:47:12;3.67;;;3.37;;
11771;SDS011;12556;55.748;13.194;2022-09-12T00:49:43;4.23;;;3.87;;
11771;SDS011;12556;55.748;13.194;2022-09-12T00:52:14;4.30;;;3.73;;
11771;SDS011;12556;55.748;13.194;2022-09-12T00:54:46;4.70;;;3.77;;
11771;SDS011;12556;55.748;13.194;2022-09-12T00:57:16;3.63;;;3.33;;
11771;SDS011;12556;55.748;13.194;2022-09-12T00:59:47;4.33;;;3.93;;
11771;SDS011;12556;55.748;13.194;2022-09-12T01:02:18;4.27;;;3.87;;
11771;SDS011;12556;55.748;13.194;2022-09-12T01:04:45;3.90;;;3.60;;
11771;SDS011;12556;55.748;13.194;2022-09-12T01:07:13;5.00;;;3.70;;
11771;SDS011;12556;55.748;13.194;2022-09-12T01:09:40;4.40;;;4.00;;
11771;SDS011;12556;55.748;13.194;2022-09-12T01:12:08;4.67;;;4.27;;
11771;SDS011;12556;55.748;13.194;2022-09-12T01:14:35;4.40;;;4.00;;
11771;SDS011;12556;55.748;13.194;2022-09-12T01:17:03;4.67;;;4.27;;
11771;SDS011;12556;55.748;13.194;2022-09-12T01:19:36;6.00;;;4.43;;
11771;SDS011;12556;55.748;13.194;2022-09-12T01:22:28;5.40;;;4.50;;
11771;SDS011;12556;55.748;13.194;2022-09-12T01:25:14;5.90;;;5.37;;
11771;SDS011;12556;55.748;13.194;2022-09-12T01:27:54;8.70;;;6.17;;
11771;SDS011;12556;55.748;13.194;2022-09-12T01:33:26;6.43;;;5.83;;
11771;SDS011;12556;55.748;13.194;2022-09-12T01:36:17;12.07;;;7.27;;
11771;SDS011;12556;55.748;13.194;2022-09-12T01:39:00;7.53;;;6.83;;
11771;SDS011;12556;55.748;13.194;2022-09-12T01:41:30;10.30;;;7.77;;
11771;SDS011;12556;55.748;13.194;2022-09-12T01:44:08;9.13;;;7.90;;
11771;SDS011;12556;55.748;13.194;2022-09-12T01:46:46;8.90;;;7.87;;
11771;SDS011;12556;55.748;13.194;2022-09-12T01:49:19;10.03;;;7.90;;
11771;SDS011;12556;55.748;13.194;2022-09-12T01:51:51;11.10;;;6.50;;
11771;SDS011;12556;55.748;13.194;2022-09-12T01:54:23;6.47;;;5.87;;
11771;SDS011;12556;55.748;13.194;2022-09-12T01:56:55;13.07;;;5.67;;
11771;SDS011;12556;55.748;13.194;2022-09-12T01:59:27;6.07;;;5.50;;
11771;SDS011;12556;55.748;13.194;2022-09-12T02:02:01;5.10;;;4.70;;
11771;SDS011;12556;55.748;13.194;2022-09-12T02:04:33;4.70;;;4.20;;
11771;SDS011;12556;55.748;13.194;2022-09-12T02:07:07;5.97;;;3.90;;
11771;SDS011;12556;55.748;13.194;2022-09-12T02:09:40;4.03;;;3.73;;
11771;SDS011;12556;55.748;13.194;2022-09-12T02:12:12;3.80;;;3.50;;
11771;SDS011;12556;55.748;13.194;2022-09-12T02:14:44;4.63;;;3.53;;
11771;SDS011;12556;55.748;13.194;2022-09-12T02:17:16;6.40;;;3.27;;
11771;SDS011;12556;55.748;13.194;2022-09-12T02:19:46;8.50;;;3.80;;
11771;SDS011;12556;55.748;13.194;2022-09-12T02:22:18;4.23;;;3.83;;
11771;SDS011;12556;55.748;13.194;2022-09-12T02:24:48;3.87;;;3.57;;
11771;SDS011;12556;55.748;13.194;2022-09-12T02:27:19;4.77;;;2.67;;
11771;SDS011;12556;55.748;13.194;2022-09-12T02:29:49;2.57;;;2.37;;
11771;SDS011;12556;55.748;13.194;2022-09-12T02:32:19;2.63;;;2.43;;
11771;SDS011;12556;55.748;13.194;2022-09-12T02:34:53;2.37;;;2.17;;
11771;SDS011;12556;55.748;13.194;2022-09-12T02:37:27;2.17;;;2.07;;
11771;SDS011;12556;55.748;13.194;2022-09-12T02:40:06;1.97;;;1.87;;
11771;SDS011;12556;55.748;13.194;2022-09-12T02:42:34;2.30;;;2.10;;
11771;SDS011;12556;55.748;13.194;2022-09-12T02:45:01;2.63;;;2.17;;
11771;SDS011;12556;55.748;13.194;2022-09-12T02:47:31;2.33;;;2.13;;
11771;SDS011;12556;55.748;13.194;2022-09-12T02:50:03;2.10;;;1.97;;
11771;SDS011;12556;55.748;13.194;2022-09-12T02:52:32;3.10;;;1.93;;
11771;SDS011;12556;55.748;13.194;2022-09-12T02:54:59;2.27;;;2.17;;
11771;SDS011;12556;55.748;13.194;2022-09-12T02:57:29;2.50;;;2.30;;
11771;SDS011;12556;55.748;13.194;2022-09-12T02:59:57;2.10;;;2.00;;
11771;SDS011;12556;55.748;13.194;2022-09-12T03:02:28;2.87;;;2.27;;
11771;SDS011;12556;55.748;13.194;2022-09-12T03:05:13;3.87;;;2.20;;
11771;SDS011;12556;55.748;13.194;2022-09-12T03:10:41;7.53;;;2.33;;
11771;SDS011;12556;55.748;13.194;2022-09-12T03:13:27;2.80;;;1.70;;
11771;SDS011;12556;55.748;13.194;2022-09-12T03:16:03;2.23;;;1.80;;
11771;SDS011;12556;55.748;13.194;2022-09-12T03:18:44;1.70;;;1.60;;
11771;SDS011;12556;55.748;13.194;2022-09-12T03:21:20;1.50;;;1.40;;
11771;SDS011;12556;55.748;13.194;2022-09-12T03:23:55;1.93;;;1.83;;
11771;SDS011;12556;55.748;13.194;2022-09-12T03:26:30;1.50;;;1.40;;
11771;SDS011;12556;55.748;13.194;2022-09-12T03:29:02;1.80;;;1.70;;
11771;SDS011;12556;55.748;13.194;2022-09-12T03:31:32;1.63;;;1.53;;
11771;SDS011;12556;55.748;13.194;2022-09-12T03:34:00;1.50;;;1.40;;
11771;SDS011;12556;55.748;13.194;2022-09-12T03:36:28;1.53;;;1.43;;
11771;SDS011;12556;55.748;13.194;2022-09-12T03:38:55;1.50;;;1.40;;
11771;SDS011;12556;55.748;13.194;2022-09-12T03:41:22;2.17;;;1.50;;
11771;SDS011;12556;55.748;13.194;2022-09-12T03:43:49;1.70;;;1.60;;
11771;SDS011;12556;55.748;13.194;2022-09-12T03:46:16;1.50;;;1.40;;
11771;SDS011;12556;55.748;13.194;2022-09-12T03:48:43;2.73;;;1.40;;
11771;SDS011;12556;55.748;13.194;2022-09-12T03:51:11;1.67;;;1.47;;
11771;SDS011;12556;55.748;13.194;2022-09-12T03:53:38;2.60;;;1.67;;
11771;SDS011;12556;55.748;13.194;2022-09-12T03:56:05;1.70;;;1.50;;
11771;SDS011;12556;55.748;13.194;2022-09-12T03:58:33;2.57;;;1.37;;
11771;SDS011;12556;55.748;13.194;2022-09-12T04:01:05;2.57;;;1.70;;
11771;SDS011;12556;55.748;13.194;2022-09-12T04:03:36;2.07;;;1.87;;
11771;SDS011;12556;55.748;13.194;2022-09-12T04:06:04;2.20;;;2.00;;
11771;SDS011;12556;55.748;13.194;2022-09-12T04:08:33;2.63;;;2.43;;
11771;SDS011;12556;55.748;13.194;2022-09-12T04:11:03;3.27;;;2.73;;
11771;SDS011;12556;55.748;13.194;2022-09-12T04:13:31;3.40;;;2.77;;
11771;SDS011;12556;55.748;13.194;2022-09-12T04:15:58;3.73;;;3.17;;
11771;SDS011;12556;55.748;13.194;2022-09-12T04:18:25;3.30;;;2.87;;
11771;SDS011;12556;55.748;13.194;2022-09-12T04:20:53;4.37;;;2.97;;
11771;SDS011;12556;55.748;13.194;2022-09-12T04:23:20;4.43;;;3.03;;
11771;SDS011;12556;55.748;13.194;2022-09-12T04:25:53;3.03;;;2.73;;
11771;SDS011;12556;55.748;13.194;2022-09-12T04:28:21;3.37;;;2.80;;
11771;SDS011;12556;55.748;13.194;2022-09-12T04:30:49;3.80;;;2.83;;
11771;SDS011;12556;55.748;13.194;2022-09-12T04:33:16;3.37;;;2.50;;
11771;SDS011;12556;55.748;13.194;2022-09-12T04:35:43;2.30;;;2.10;;
11771;SDS011;12556;55.748;13.194;2022-09-12T04:38:10;3.27;;;2.10;;
11771;SDS011;12556;55.748;13.194;2022-09-12T04:40:37;2.47;;;2.00;;
11771;SDS011;12556;55.748;13.194;2022-09-12T04:43:05;2.40;;;2.00;;
11771;SDS011;12556;55.748;13.194;2022-09-12T04:45:33;3.73;;;2.23;;
11771;SDS011;12556;55.748;13.194;2022-09-12T04:48:00;17.67;;;3.43;;
11771;SDS011;12556;55.748;13.194;2022-09-12T04:50:27;4.53;;;2.30;;
11771;SDS011;12556;55.748;13.194;2022-09-12T04:52:54;9.87;;;2.33;;
11771;SDS011;12556;55.748;13.194;2022-09-12T04:55:21;2.60;;;2.40;;
11771;SDS011;12556;55.748;13.194;2022-09-12T04:57:49;4.10;;;2.17;;
11771;SDS011;12556;55.748;13.194;2022-09-12T05:00:17;8.10;;;2.43;;
11771;SDS011;12556;55.748;13.194;2022-09-12T05:02:44;2.23;;;1.90;;
11771;SDS011;12556;55.748;13.194;2022-09-12T05:05:11;2.27;;;2.17;;
11771;SDS011;12556;55.748;13.194;2022-09-12T05:07:38;1.80;;;1.70;;
11771;SDS011;12556;55.748;13.194;2022-09-12T05:10:06;2.10;;;1.90;;
11771;SDS011;12556;55.748;13.194;2022-09-12T05:12:33;1.90;;;1.80;;
11771;SDS011;12556;55.748;13.194;2022-09-12T05:15:01;2.60;;;1.70;;
11771;SDS011;12556;55.748;13.194;2022-09-12T05:17:30;1.97;;;1.87;;
11771;SDS011;12556;55.748;13.194;2022-09-12T05:19:57;2.03;;;1.90;;
11771;SDS011;12556;55.748;13.194;2022-09-12T05:22:24;2.03;;;1.83;;
11771;SDS011;12556;55.748;13.194;2022-09-12T05:24:51;2.40;;;2.00;;
11771;SDS011;12556;55.748;13.194;2022-09-12T05:27:18;1.77;;;1.67;;
11771;SDS011;12556;55.748;13.194;2022-09-12T05:29:45;2.23;;;1.60;;
11771;SDS011;12556;55.748;13.194;2022-09-12T05:32:12;1.97;;;1.87;;
11771;SDS011;12556;55.748;13.194;2022-09-12T05:34:40;2.10;;;1.87;;
11771;SDS011;12556;55.748;13.194;2022-09-12T05:37:07;1.77;;;1.67;;
11771;SDS011;12556;55.748;13.194;2022-09-12T05:39:33;2.07;;;1.60;;
11771;SDS011;12556;55.748;13.194;2022-09-12T05:42:00;1.60;;;1.50;;
11771;SDS011;12556;55.748;13.194;2022-09-12T05:44:27;1.97;;;1.87;;
11771;SDS011;12556;55.748;13.194;2022-09-12T05:46:54;1.57;;;1.47;;
11771;SDS011;12556;55.748;13.194;2022-09-12T05:49:21;2.00;;;1.63;;
11771;SDS011;12556;55.748;13.194;2022-09-12T05:51:50;1.80;;;1.70;;
11771;SDS011;12556;55.748;13.194;2022-09-12T05:54:17;1.67;;;1.57;;
11771;SDS011;12556;55.748;13.194;2022-09-12T05:56:45;1.87;;;1.77;;
11771;SDS011;12556;55.748;13.194;2022-09-12T05:59:14;1.73;;;1.60;;
11771;SDS011;12556;55.748;13.194;2022-09-12T06:01:42;1.90;;;1.70;;
11771;SDS011;12556;55.748;13.194;2022-09-12T06:04:09;2.00;;;1.87;;
11771;SDS011;12556;55.748;13.194;2022-09-12T06:06:37;2.00;;;1.60;;
11771;SDS011;12556;55.748;13.194;2022-09-12T06:09:07;2.20;;;2.00;;
11771;SDS011;12556;55.748;13.194;2022-09-12T06:11:36;2.50;;;2.30;;
11771;SDS011;12556;55.748;13.194;2022-09-12T06:14:04;2.37;;;2.17;;
11771;SDS011;12556;55.748;13.194;2022-09-12T06:16:33;2.27;;;2.07;;
11771;SDS011;12556;55.748;13.194;2022-09-12T06:19:00;3.47;;;2.67;;
11771;SDS011;12556;55.748;13.194;2022-09-12T06:21:29;4.17;;;3.07;;
11771;SDS011;12556;55.748;13.194;2022-09-12T06:23:56;5.23;;;3.70;;
11771;SDS011;12556;55.748;13.194;2022-09-12T06:26:28;4.70;;;3.63;;
11771;SDS011;12556;55.748;13.194;2022-09-12T06:28:56;7.83;;;3.70;;
11771;SDS011;12556;55.748;13.194;2022-09-12T06:31:25;4.10;;;3.70;;
11771;SDS011;12556;55.748;13.194;2022-09-12T06:33:54;3.83;;;3.13;;
11771;SDS011;12556;55.748;13.194;2022-09-12T06:36:23;4.50;;;4.07;;
11771;SDS011;12556;55.748;13.194;2022-09-12T06:38:52;4.27;;;3.70;;
11771;SDS011;12556;55.748;13.194;2022-09-12T06:41:21;5.73;;;3.70;;
11771;SDS011;12556;55.748;13.194;2022-09-12T06:43:50;3.50;;;3.20;;
11771;SDS011;12556;55.748;13.194;2022-09-12T06:46:18;4.00;;;3.70;;
11771;SDS011;12556;55.748;13.194;2022-09-12T06:48:45;3.70;;;3.40;;
11771;SDS011;12556;55.748;13.194;2022-09-12T06:51:13;4.50;;;3.90;;
11771;SDS011;12556;55.748;13.194;2022-09-12T06:53:41;4.93;;;3.70;;
11771;SDS011;12556;55.748;13.194;2022-09-12T06:56:09;4.63;;;3.87;;
11771;SDS011;12556;55.748;13.194;2022-09-12T06:58:37;3.97;;;3.67;;
11771;SDS011;12556;55.748;13.194;2022-09-12T07:01:07;5.27;;;4.20;;
11771;SDS011;12556;55.748;13.194;2022-09-12T07:03:35;3.90;;;3.50;;
11771;SDS011;12556;55.748;13.194;2022-09-12T07:06:03;3.93;;;3.53;;
11771;SDS011;12556;55.748;13.194;2022-09-12T07:08:31;4.43;;;4.03;;
11771;SDS011;12556;55.748;13.194;2022-09-12T07:10:59;4.37;;;4.00;;
11771;SDS011;12556;55.748;13.194;2022-09-12T07:13:33;6.93;;;3.60;;
11771;SDS011;12556;55.748;13.194;2022-09-12T07:16:00;3.47;;;3.17;;
11771;SDS011;12556;55.748;13.194;2022-09-12T07:18:28;3.50;;;3.20;;
11771;SDS011;12556;55.748;13.194;2022-09-12T07:20:55;4.13;;;3.73;;
11771;SDS011;12556;55.748;13.194;2022-09-12T07:23:24;3.70;;;3.30;;
11771;SDS011;12556;55.748;13.194;2022-09-12T07:25:51;4.17;;;3.33;;
11771;SDS011;12556;55.748;13.194;2022-09-12T07:28:21;4.07;;;3.17;;
11771;SDS011;12556;55.748;13.194;2022-09-12T07:30:48;5.33;;;3.50;;
11771;SDS011;12556;55.748;13.194;2022-09-12T07:33:17;4.37;;;3.97;;
11771;SDS011;12556;55.748;13.194;2022-09-12T07:35:47;3.80;;;3.50;;
11771;SDS011;12556;55.748;13.194;2022-09-12T07:38:14;3.83;;;3.43;;
11771;SDS011;12556;55.748;13.194;2022-09-12T07:40:41;3.47;;;3.17;;
11771;SDS011;12556;55.748;13.194;2022-09-12T07:43:08;4.33;;;3.93;;
11771;SDS011;12556;55.748;13.194;2022-09-12T07:45:35;3.73;;;3.43;;
11771;SDS011;12556;55.748;13.194;2022-09-12T07:48:05;6.50;;;3.63;;
11771;SDS011;12556;55.748;13.194;2022-09-12T07:50:32;4.13;;;3.20;;
11771;SDS011;12556;55.748;13.194;2022-09-12T07:53:01;4.10;;;3.20;;
11771;SDS011;12556;55.748;13.194;2022-09-12T07:55:29;3.30;;;3.00;;
11771;SDS011;12556;55.748;13.194;2022-09-12T07:57:56;4.60;;;3.07;;
11771;SDS011;12556;55.748;13.194;2022-09-12T08:00:23;2.37;;;2.17;;
11771;SDS011;12556;55.748;13.194;2022-09-12T08:02:51;2.63;;;2.43;;
11771;SDS011;12556;55.748;13.194;2022-09-12T08:05:18;2.50;;;2.30;;
11771;SDS011;12556;55.748;13.194;2022-09-12T08:07:45;3.10;;;2.57;;
11771;SDS011;12556;55.748;13.194;2022-09-12T08:10:15;2.53;;;2.00;;
11771;SDS011;12556;55.748;13.194;2022-09-12T08:12:41;2.57;;;2.00;;
11771;SDS011;12556;55.748;13.194;2022-09-12T08:15:09;4.80;;;2.20;;
11771;SDS011;12556;55.748;13.194;2022-09-12T08:17:36;2.00;;;1.80;;
11771;SDS011;12556;55.748;13.194;2022-09-12T08:20:03;2.50;;;2.20;;
11771;SDS011;12556;55.748;13.194;2022-09-12T08:22:31;2.25;;;2.08;;
11771;SDS011;12556;55.748;13.194;2022-09-12T08:24:58;2.42;;;2.00;;
11771;SDS011;12556;55.748;13.194;2022-09-12T08:27:26;6.70;;;2.40;;
11771;SDS011;12556;55.748;13.194;2022-09-12T08:29:53;1.88;;;1.75;;
11771;SDS011;12556;55.748;13.194;2022-09-12T08:32:20;2.60;;;1.63;;
11771;SDS011;12556;55.748;13.194;2022-09-12T08:34:46;1.58;;;1.48;;
11771;SDS011;12556;55.748;13.194;2022-09-12T08:37:13;2.33;;;1.80;;
11771;SDS011;12556;55.748;13.194;2022-09-12T08:39:40;1.55;;;1.45;;
11771;SDS011;12556;55.748;13.194;2022-09-12T08:42:08;1.90;;;1.67;;
11771;SDS011;12556;55.748;13.194;2022-09-12T08:44:45;2.15;;;1.80;;
11771;SDS011;12556;55.748;13.194;2022-09-12T08:47:24;4.03;;;1.73;;
11771;SDS011;12556;55.748;13.194;2022-09-12T08:50:02;1.67;;;1.58;;
11771;SDS011;12556;55.748;13.194;2022-09-12T08:52:37;3.45;;;1.77;;
11771;SDS011;12556;55.748;13.194;2022-09-12T08:55:12;2.20;;;2.00;;
11771;SDS011;12556;55.748;13.194;2022-09-12T08:57:49;2.15;;;1.95;;
11771;SDS011;12556;55.748;13.194;2022-09-12T09:00:18;2.75;;;2.40;;
11771;SDS011;12556;55.748;13.194;2022-09-12T09:02:53;2.47;;;2.20;;
11771;SDS011;12556;55.748;13.194;2022-09-12T09:05:36;2.25;;;1.95;;
11771;SDS011;12556;55.748;13.194;2022-09-12T09:08:28;3.47;;;2.40;;
11771;SDS011;12556;55.748;13.194;2022-09-12T09:11:06;1.98;;;1.77;;
11771;SDS011;12556;55.748;13.194;2022-09-12T09:13:48;2.08;;;1.73;;
11771;SDS011;12556;55.748;13.194;2022-09-12T09:16:41;1.90;;;1.80;;
11771;SDS011;12556;55.748;13.194;2022-09-12T09:19:12;2.83;;;2.00;;
11771;SDS011;12556;55.748;13.194;2022-09-12T09:21:44;1.95;;;1.85;;
11771;SDS011;12556;55.748;13.194;2022-09-12T09:24:16;2.70;;;2.08;;
11771;SDS011;12556;55.748;13.194;2022-09-12T09:26:51;2.05;;;1.95;;
11771;SDS011;12556;55.748;13.194;2022-09-12T09:29:22;2.38;;;2.17;;
11771;SDS011;12556;55.748;13.194;2022-09-12T09:31:54;2.70;;;2.40;;
11771;SDS011;12556;55.748;13.194;2022-09-12T09:34:24;2.13;;;2.03;;
11771;SDS011;12556;55.748;13.194;2022-09-12T09:36:56;2.42;;;1.90;;
11771;SDS011;12556;55.748;13.194;2022-09-12T09:39:33;1.58;;;1.48;;
11771;SDS011;12556;55.748;13.194;2022-09-12T09:42:12;2.92;;;1.80;;
11771;SDS011;12556;55.748;13.194;2022-09-12T09:44:47;2.20;;;2.00;;
11771;SDS011;12556;55.748;13.194;2022-09-12T09:47:19;1.90;;;1.63;;
11771;SDS011;12556;55.748;13.194;2022-09-12T09:49:46;2.33;;;2.00;;
11771;SDS011;12556;55.748;13.194;2022-09-12T09:52:13;1.80;;;1.70;;
11771;SDS011;12556;55.748;13.194;2022-09-12T09:54:43;2.65;;;1.90;;
11771;SDS011;12556;55.748;13.194;2022-09-12T10:00:20;1.75;;;1.60;;
11771;SDS011;12556;55.748;13.194;2022-09-12T10:03:03;1.80;;;1.70;;
11771;SDS011;12556;55.748;13.194;2022-09-12T10:05:48;1.70;;;1.60;;
11771;SDS011;12556;55.748;13.194;2022-09-12T10:08:20;1.90;;;1.70;;
11771;SDS011;12556;55.748;13.194;2022-09-12T10:10:54;2.13;;;1.60;;
11771;SDS011;12556;55.748;13.194;2022-09-12T10:13:23;1.80;;;1.38;;
11771;SDS011;12556;55.748;13.194;2022-09-12T10:15:56;1.70;;;1.60;;
11771;SDS011;12556;55.748;13.194;2022-09-12T10:18:36;1.45;;;1.20;;
11771;SDS011;12556;55.748;13.194;2022-09-12T10:21:20;1.50;;;1.40;;
11771;SDS011;12556;55.748;13.194;2022-09-12T10:23:56;2.53;;;1.27;;
11771;SDS011;12556;55.748;13.194;2022-09-12T10:26:26;1.50;;;1.40;;
11771;SDS011;12556;55.748;13.194;2022-09-12T10:28:58;1.50;;;1.40;;
11771;SDS011;12556;55.748;13.194;2022-09-12T10:31:33;1.60;;;1.50;;
11771;SDS011;12556;55.748;13.194;2022-09-12T10:34:14;1.10;;;1.10;;
11771;SDS011;12556;55.748;13.194;2022-09-12T10:36:48;1.48;;;1.38;;
11771;SDS011;12556;55.748;13.194;2022-09-12T10:39:18;1.30;;;1.15;;
11771;SDS011;12556;55.748;13.194;2022-09-12T10:41:46;1.40;;;1.40;;
11771;SDS011;12556;55.748;13.194;2022-09-12T10:44:14;1.42;;;1.20;;
11771;SDS011;12556;55.748;13.194;2022-09-12T10:46:42;2.38;;;1.40;;
11771;SDS011;12556;55.748;13.194;2022-09-12T10:49:13;1.30;;;1.20;;
11771;SDS011;12556;55.748;13.194;2022-09-12T10:51:50;2.38;;;1.60;;
11771;SDS011;12556;55.748;13.194;2022-09-12T10:54:20;1.55;;;1.45;;
11771;SDS011;12556;55.748;13.194;2022-09-12T10:56:53;1.60;;;1.50;;
11771;SDS011;12556;55.748;13.194;2022-09-12T10:59:43;4.32;;;1.90;;
11771;SDS011;12556;55.748;13.194;2022-09-12T11:02:28;2.03;;;1.50;;
11771;SDS011;12556;55.748;13.194;2022-09-12T11:05:04;1.83;;;1.40;;
11771;SDS011;12556;55.748;13.194;2022-09-12T11:07:38;1.40;;;1.20;;
11771;SDS011;12556;55.748;13.194;2022-09-12T11:10:22;1.45;;;1.15;;
11771;SDS011;12556;55.748;13.194;2022-09-12T11:12:57;2.03;;;1.25;;
11771;SDS011;12556;55.748;13.194;2022-09-12T11:15:38;1.20;;;1.20;;
11771;SDS011;12556;55.748;13.194;2022-09-12T11:18:17;1.15;;;1.05;;
11771;SDS011;12556;55.748;13.194;2022-09-12T11:20:58;1.15;;;1.05;;
11771;SDS011;12556;55.748;13.194;2022-09-12T11:23:46;1.15;;;1.15;;
11771;SDS011;12556;55.748;13.194;2022-09-12T11:29:29;3.00;;;1.27;;
11771;SDS011;12556;55.748;13.194;2022-09-12T11:32:09;1.25;;;1.10;;
11771;SDS011;12556;55.748;13.194;2022-09-12T11:34:54;1.58;;;1.20;;
11771;SDS011;12556;55.748;13.194;2022-09-12T11:37:45;1.38;;;1.27;;
11771;SDS011;12556;55.748;13.194;2022-09-12T11:40:28;1.30;;;1.20;;
11771;SDS011;12556;55.748;13.194;2022-09-12T11:42:59;1.23;;;1.13;;
11771;SDS011;12556;55.748;13.194;2022-09-12T11:45:31;1.27;;;1.20;;
11771;SDS011;12556;55.748;13.194;2022-09-12T11:48:06;1.30;;;1.20;;
11771;SDS011;12556;55.748;13.194;2022-09-12T11:50:38;1.30;;;1.20;;
11771;SDS011;12556;55.748;13.194;2022-09-12T11:53:10;1.42;;;1.33;;
11771;SDS011;12556;55.748;13.194;2022-09-12T11:55:51;1.40;;;1.25;;
11771;SDS011;12556;55.748;13.194;2022-09-12T11:58:21;2.45;;;1.25;;
11771;SDS011;12556;55.748;13.194;2022-09-12T12:00:51;1.20;;;1.10;;
11771;SDS011;12556;55.748;13.194;2022-09-12T12:03:22;1.60;;;1.20;;
11771;SDS011;12556;55.748;13.194;2022-09-12T12:05:56;1.75;;;1.20;;
11771;SDS011;12556;55.748;13.194;2022-09-12T12:08:30;1.48;;;1.38;;
11771;SDS011;12556;55.748;13.194;2022-09-12T12:11:03;1.20;;;1.15;;
11771;SDS011;12556;55.748;13.194;2022-09-12T12:13:33;1.33;;;1.15;;
11771;SDS011;12556;55.748;13.194;2022-09-12T12:16:04;1.42;;;1.33;;
11771;SDS011;12556;55.748;13.194;2022-09-12T12:18:34;1.50;;;1.40;;
11771;SDS011;12556;55.748;13.194;2022-09-12T12:24:03;1.35;;;1.23;;
11771;SDS011;12556;55.748;13.194;2022-09-12T12:26:40;1.38;;;1.27;;
11771;SDS011;12556;55.748;13.194;2022-09-12T12:29:09;1.60;;;1.50;;
11771;SDS011;12556;55.748;13.194;2022-09-12T12:34:37;1.52;;;1.42;;
11771;SDS011;12556;55.748;13.194;2022-09-12T12:40:20;1.80;;;1.70;;
11771;SDS011;12556;55.748;13.194;2022-09-12T12:46:04;1.40;;;1.30;;
11771;SDS011;12556;55.748;13.194;2022-09-12T12:51:56;1.13;;;1.05;;
11771;SDS011;12556;55.748;13.194;2022-09-12T12:57:29;1.17;;;1.08;;
11771;SDS011;12556;55.748;13.194;2022-09-12T13:00:03;1.05;;;0.98;;
11771;SDS011;12556;55.748;13.194;2022-09-12T13:02:33;1.63;;;1.13;;
11771;SDS011;12556;55.748;13.194;2022-09-12T13:05:05;1.23;;;1.05;;
11771;SDS011;12556;55.748;13.194;2022-09-12T13:07:42;1.05;;;1.02;;
11771;SDS011;12556;55.748;13.194;2022-09-12T13:10:18;1.17;;;0.95;;
11771;SDS011;12556;55.748;13.194;2022-09-12T13:12:49;1.13;;;1.10;;
11771;SDS011;12556;55.748;13.194;2022-09-12T13:18:17;1.00;;;1.00;;
11771;SDS011;12556;55.748;13.194;2022-09-12T13:20:50;1.55;;;1.08;;
11771;SDS011;12556;55.748;13.194;2022-09-12T13:23:21;1.77;;;1.35;;
11771;SDS011;12556;55.748;13.194;2022-09-12T13:25:51;2.25;;;1.45;;
11771;SDS011;12556;55.748;13.194;2022-09-12T13:28:20;1.55;;;1.33;;
11771;SDS011;12556;55.748;13.194;2022-09-12T13:30:53;1.40;;;1.30;;
11771;SDS011;12556;55.748;13.194;2022-09-12T13:33:25;1.40;;;1.30;;
11771;SDS011;12556;55.748;13.194;2022-09-12T13:39:11;2.25;;;1.40;;
11771;SDS011;12556;55.748;13.194;2022-09-12T13:44:49;2.45;;;1.10;;
11771;SDS011;12556;55.748;13.194;2022-09-12T13:47:22;1.13;;;1.13;;
11771;SDS011;12556;55.748;13.194;2022-09-12T13:49:53;1.02;;;1.02;;
11771;SDS011;12556;55.748;13.194;2022-09-12T13:52:22;1.48;;;0.85;;
11771;SDS011;12556;55.748;13.194;2022-09-12T13:54:53;0.93;;;0.93;;
11771;SDS011;12556;55.748;13.194;2022-09-12T13:57:27;2.28;;;1.10;;
11771;SDS011;12556;55.748;13.194;2022-09-12T13:59:57;1.40;;;1.30;;
11771;SDS011;12556;55.748;13.194;2022-09-12T14:02:26;1.40;;;1.30;;
11771;SDS011;12556;55.748;13.194;2022-09-12T14:04:55;1.77;;;1.30;;
11771;SDS011;12556;55.748;13.194;2022-09-12T14:07:37;1.25;;;1.15;;
11771;SDS011;12556;55.748;13.194;2022-09-12T14:10:12;1.20;;;1.10;;
11771;SDS011;12556;55.748;13.194;2022-09-12T14:12:45;2.05;;;1.30;;
11771;SDS011;12556;55.748;13.194;2022-09-12T14:15:16;0.98;;;0.98;;
11771;SDS011;12556;55.748;13.194;2022-09-12T14:17:48;2.90;;;0.90;;
11771;SDS011;12556;55.748;13.194;2022-09-12T14:20:17;1.13;;;1.00;;
11771;SDS011;12556;55.748;13.194;2022-09-12T14:22:47;1.00;;;0.90;;
11771;SDS011;12556;55.748;13.194;2022-09-12T14:25:15;2.05;;;1.10;;
11771;SDS011;12556;55.748;13.194;2022-09-12T14:27:45;1.27;;;1.15;;
11771;SDS011;12556;55.748;13.194;2022-09-12T14:30:22;1.48;;;1.38;;
11771;SDS011;12556;55.748;13.194;2022-09-12T14:33:03;3.67;;;1.30;;
11771;SDS011;12556;55.748;13.194;2022-09-12T14:35:45;1.58;;;1.30;;
11771;SDS011;12556;55.748;13.194;2022-09-12T14:38:17;1.98;;;1.35;;
11771;SDS011;12556;55.748;13.194;2022-09-12T14:40:51;2.97;;;1.58;;
11771;SDS011;12556;55.748;13.194;2022-09-12T14:43:25;2.00;;;1.30;;
11771;SDS011;12556;55.748;13.194;2022-09-12T14:45:57;2.35;;;1.40;;
11771;SDS011;12556;55.748;13.194;2022-09-12T14:48:26;2.58;;;1.40;;
11771;SDS011;12556;55.748;13.194;2022-09-12T14:50:56;3.78;;;1.52;;
11771;SDS011;12556;55.748;13.194;2022-09-12T14:53:25;3.10;;;1.67;;
11771;SDS011;12556;55.748;13.194;2022-09-12T14:56:02;2.05;;;1.42;;
11771;SDS011;12556;55.748;13.194;2022-09-12T14:58:33;1.40;;;1.30;;
11771;SDS011;12556;55.748;13.194;2022-09-12T15:01:02;2.80;;;1.65;;
11771;SDS011;12556;55.748;13.194;2022-09-12T15:03:49;1.75;;;1.33;;
11771;SDS011;12556;55.748;13.194;2022-09-12T15:06:19;3.55;;;1.45;;
11771;SDS011;12556;55.748;13.194;2022-09-12T15:08:49;1.88;;;1.45;;
11771;SDS011;12556;55.748;13.194;2022-09-12T15:11:18;1.80;;;1.40;;
11771;SDS011;12556;55.748;13.194;2022-09-12T15:13:45;1.20;;;1.10;;
11771;SDS011;12556;55.748;13.194;2022-09-12T15:16:13;1.33;;;1.23;;
11771;SDS011;12556;55.748;13.194;2022-09-12T15:18:40;1.20;;;1.10;;
11771;SDS011;12556;55.748;13.194;2022-09-12T15:21:09;2.50;;;1.55;;
11771;SDS011;12556;55.748;13.194;2022-09-12T15:23:38;1.30;;;1.20;;
11771;SDS011;12556;55.748;13.194;2022-09-12T15:26:08;1.90;;;1.30;;
11771;SDS011;12556;55.748;13.194;2022-09-12T15:28:37;1.50;;;1.20;;
11771;SDS011;12556;55.748;13.194;2022-09-12T15:31:05;1.35;;;1.20;;
11771;SDS011;12556;55.748;13.194;2022-09-12T15:33:38;3.30;;;1.10;;
11771;SDS011;12556;55.748;13.194;2022-09-12T15:36:09;1.42;;;1.20;;
11771;SDS011;12556;55.748;13.194;2022-09-12T15:38:39;1.20;;;1.10;;